createdAt,value
2022-09-15T00:02:20.671Z,1.10
2022-09-15T00:04:47.027Z,1.00
2022-09-15T00:07:13.320Z,1.00
2022-09-15T00:09:39.667Z,0.80
2022-09-15T00:12:06.127Z,0.50
2022-09-15T00:14:32.495Z,0.85
2022-09-15T00:16:58.858Z,0.90
2022-09-15T00:19:25.199Z,0.77
2022-09-15T00:21:51.591Z,0.80
2022-09-15T00:24:17.903Z,0.90
2022-09-15T00:26:44.306Z,1.13
2022-09-15T00:29:11.163Z,0.68
2022-09-15T00:31:37.521Z,0.70
2022-09-15T00:34:04.079Z,0.60
2022-09-15T00:36:30.488Z,0.90
2022-09-15T00:38:57.707Z,1.10
2022-09-15T00:41:24.547Z,0.65
2022-09-15T00:44:06.030Z,1.00
2022-09-15T00:46:35.070Z,0.90
2022-09-15T00:49:25.893Z,0.88
2022-09-15T00:51:57.250Z,0.98
2022-09-15T00:54:31.228Z,0.90
2022-09-15T00:57:02.517Z,0.93
2022-09-15T00:59:31.934Z,1.30
2022-09-15T01:02:11.916Z,1.13
2022-09-15T01:04:38.309Z,0.90
2022-09-15T01:07:08.093Z,1.00
2022-09-15T01:09:41.654Z,1.20
2022-09-15T01:12:08.018Z,1.05
2022-09-15T01:14:34.480Z,1.40
2022-09-15T01:17:10.333Z,0.88
2022-09-15T01:20:01.725Z,1.17
2022-09-15T01:22:46.055Z,1.10
2022-09-15T01:25:43.525Z,0.85
2022-09-15T01:28:47.504Z,1.20
2022-09-15T01:31:26.067Z,1.20
2022-09-15T01:34:05.846Z,1.55
2022-09-15T01:36:47.112Z,1.93
2022-09-15T01:39:20.851Z,1.50
2022-09-15T01:41:57.624Z,1.60
2022-09-15T01:44:28.948Z,1.30
2022-09-15T01:47:00.117Z,1.55
2022-09-15T01:49:34.226Z,1.97
2022-09-15T01:52:01.070Z,2.17
2022-09-15T01:54:32.887Z,1.83
2022-09-15T01:56:59.463Z,1.50
2022-09-15T01:59:25.889Z,1.55
2022-09-15T02:02:16.225Z,2.00
2022-09-15T02:04:49.741Z,2.00
2022-09-15T02:07:31.925Z,1.50
2022-09-15T02:10:11.533Z,1.92
2022-09-15T02:13:11.144Z,1.65
2022-09-15T02:15:42.749Z,1.70
2022-09-15T02:18:13.018Z,1.50
2022-09-15T02:20:49.888Z,1.85
2022-09-15T02:23:26.148Z,1.33
2022-09-15T02:25:59.461Z,1.15
2022-09-15T02:28:30.004Z,1.80
2022-09-15T02:30:59.093Z,1.52
2022-09-15T02:33:32.872Z,1.52
2022-09-15T02:36:00.098Z,1.70
2022-09-15T02:38:30.386Z,1.70
2022-09-15T02:40:57.018Z,1.67
2022-09-15T02:43:23.413Z,1.90
2022-09-15T02:45:49.793Z,1.90
2022-09-15T02:48:16.163Z,1.42
2022-09-15T02:50:42.488Z,1.23
2022-09-15T02:53:09.059Z,1.60
2022-09-15T02:55:35.375Z,1.00
2022-09-15T02:58:01.878Z,1.10
2022-09-15T03:00:28.894Z,1.50
2022-09-15T03:02:56.173Z,1.73
2022-09-15T03:05:31.368Z,0.93
2022-09-15T03:07:57.733Z,1.20
2022-09-15T03:10:24.915Z,1.65
2022-09-15T03:12:53.511Z,1.20
2022-09-15T03:15:23.311Z,1.33
2022-09-15T03:17:50.454Z,1.00
2022-09-15T03:20:20.874Z,1.30
2022-09-15T03:22:48.094Z,1.40
2022-09-15T03:25:14.495Z,1.38
2022-09-15T03:27:40.856Z,1.25
2022-09-15T03:30:08.291Z,1.30
2022-09-15T03:32:34.713Z,1.23
2022-09-15T03:35:01.015Z,1.30
2022-09-15T03:37:27.674Z,0.90
2022-09-15T03:39:54.122Z,1.20
2022-09-15T03:42:20.588Z,1.13
2022-09-15T03:44:47.144Z,1.42
2022-09-15T03:47:13.503Z,1.20
2022-09-15T03:49:39.809Z,0.90
2022-09-15T03:52:06.098Z,1.00
2022-09-15T03:54:32.492Z,1.00
2022-09-15T03:56:58.892Z,1.30
2022-09-15T03:59:25.206Z,1.10
2022-09-15T04:01:51.595Z,1.13
2022-09-15T04:04:18.142Z,1.00
2022-09-15T04:06:44.892Z,1.07
2022-09-15T04:09:11.409Z,0.70
2022-09-15T04:11:38.127Z,0.63
2022-09-15T04:14:04.516Z,0.60
2022-09-15T04:16:30.939Z,0.70
2022-09-15T04:18:57.863Z,0.57
2022-09-15T04:21:26.598Z,1.17
2022-09-15T04:23:54.018Z,0.73
2022-09-15T04:26:31.112Z,0.60
2022-09-15T04:29:01.573Z,0.82
2022-09-15T04:31:30.544Z,0.70
2022-09-15T04:33:57.157Z,0.70
2022-09-15T04:36:25.672Z,0.75
2022-09-15T04:38:52.652Z,0.57
2022-09-15T04:41:20.798Z,0.50
2022-09-15T04:43:47.231Z,0.60
2022-09-15T04:46:14.119Z,0.63
2022-09-15T04:48:40.788Z,1.00
2022-09-15T04:51:10.285Z,0.60
2022-09-15T04:53:37.084Z,0.70
2022-09-15T04:56:11.131Z,0.70
2022-09-15T04:58:42.403Z,0.70
2022-09-15T05:01:19.038Z,0.50
2022-09-15T05:03:46.804Z,0.68
2022-09-15T05:06:16.115Z,0.50
2022-09-15T05:08:42.836Z,0.60
2022-09-15T05:11:11.479Z,0.50
2022-09-15T05:13:39.789Z,0.80
2022-09-15T05:16:12.284Z,0.60
2022-09-15T05:18:39.678Z,0.60
2022-09-15T05:21:07.524Z,0.47
2022-09-15T05:23:35.133Z,0.50
2022-09-15T05:26:04.284Z,0.50
2022-09-15T05:28:33.780Z,0.65
2022-09-15T05:31:00.384Z,0.50
2022-09-15T05:33:26.787Z,0.73
2022-09-15T05:35:55.343Z,0.50
2022-09-15T05:38:22.432Z,0.70
2022-09-15T05:40:49.072Z,0.60
2022-09-15T05:43:17.097Z,1.05
2022-09-15T05:45:44.191Z,0.50
2022-09-15T05:48:11.948Z,0.52
2022-09-15T05:50:39.404Z,1.05
2022-09-15T05:53:07.430Z,0.70
2022-09-15T05:55:38.091Z,0.82
2022-09-15T05:58:04.461Z,0.50
2022-09-15T06:00:30.867Z,0.55
2022-09-15T06:02:57.308Z,0.40
2022-09-15T06:05:24.412Z,0.60
2022-09-15T06:07:54.360Z,0.57
2022-09-15T06:10:24.619Z,0.67
2022-09-15T06:12:55.167Z,0.60
2022-09-15T06:15:22.623Z,0.60
2022-09-15T06:17:49.355Z,0.70
2022-09-15T06:20:15.715Z,0.82
2022-09-15T06:22:42.117Z,0.70
2022-09-15T06:25:08.862Z,0.60
2022-09-15T06:27:35.165Z,0.70
2022-09-15T06:30:01.672Z,0.68
2022-09-15T06:32:27.967Z,0.60
2022-09-15T06:34:54.284Z,0.50
2022-09-15T06:37:20.604Z,0.60
2022-09-15T06:39:47.055Z,0.80
2022-09-15T06:42:14.048Z,0.60
2022-09-15T06:44:40.407Z,0.60
2022-09-15T06:47:07.331Z,0.60
2022-09-15T06:49:33.669Z,0.57
2022-09-15T06:52:02.449Z,0.68
2022-09-15T06:54:28.785Z,0.40
2022-09-15T06:56:55.103Z,0.40
2022-09-15T06:59:23.804Z,0.70
2022-09-15T07:01:55.000Z,0.40
2022-09-15T07:04:22.028Z,0.77
2022-09-15T07:06:48.719Z,0.60
2022-09-15T07:09:15.089Z,0.45
2022-09-15T07:11:41.463Z,0.50
2022-09-15T07:14:08.321Z,0.40
2022-09-15T07:16:34.733Z,0.47
2022-09-15T07:19:03.349Z,0.70
2022-09-15T07:21:29.728Z,0.50
2022-09-15T07:23:57.653Z,0.40
2022-09-15T07:26:26.523Z,0.40
2022-09-15T07:29:05.208Z,0.57
2022-09-15T07:31:34.412Z,0.80
2022-09-15T07:34:02.105Z,0.55
2022-09-15T07:36:29.858Z,0.90
2022-09-15T07:38:56.266Z,0.50
2022-09-15T07:41:27.292Z,0.60
2022-09-15T07:43:56.173Z,0.25
2022-09-15T07:46:24.465Z,0.45
2022-09-15T07:48:53.679Z,0.40
2022-09-15T07:51:20.124Z,0.40
2022-09-15T07:53:48.039Z,0.35
2022-09-15T07:56:15.353Z,0.40
2022-09-15T07:58:41.674Z,0.40
2022-09-15T08:01:11.528Z,0.43
2022-09-15T08:03:42.683Z,0.60
2022-09-15T08:06:10.065Z,0.30
2022-09-15T08:08:40.937Z,0.60
2022-09-15T08:11:09.014Z,1.30
2022-09-15T08:13:35.924Z,0.50
2022-09-15T08:16:14.098Z,0.55
2022-09-15T08:18:42.427Z,0.30
2022-09-15T08:21:11.845Z,0.60
2022-09-15T08:23:38.355Z,0.40
2022-09-15T08:26:13.621Z,0.40
2022-09-15T08:28:40.700Z,0.60
2022-09-15T08:31:09.423Z,0.40
2022-09-15T08:33:36.496Z,0.40
2022-09-15T08:36:10.754Z,0.50
2022-09-15T08:38:41.325Z,0.30
2022-09-15T08:41:11.998Z,0.40
2022-09-15T08:43:51.623Z,0.35
2022-09-15T08:46:24.493Z,0.63
2022-09-15T08:49:26.841Z,0.50
2022-09-15T08:52:07.011Z,0.50
2022-09-15T08:54:33.888Z,0.40
2022-09-15T08:57:01.083Z,0.40
2022-09-15T08:59:33.800Z,1.40
2022-09-15T09:02:46.349Z,0.70
2022-09-15T09:05:30.811Z,0.40
2022-09-15T09:08:02.899Z,0.80
2022-09-15T09:10:36.573Z,0.70
2022-09-15T09:13:17.030Z,0.60
2022-09-15T09:15:49.137Z,0.40
2022-09-15T09:18:27.623Z,0.40
2022-09-15T09:20:59.876Z,0.70
2022-09-15T09:23:29.379Z,0.50
2022-09-15T09:25:57.464Z,0.52
2022-09-15T09:28:31.378Z,0.88
2022-09-15T09:31:08.225Z,0.50
2022-09-15T09:33:47.481Z,0.50
2022-09-15T09:36:14.920Z,0.30
2022-09-15T09:38:44.575Z,0.40
2022-09-15T09:41:19.801Z,0.40
2022-09-15T09:43:48.927Z,0.73
2022-09-15T09:46:18.276Z,0.60
2022-09-15T09:48:50.545Z,0.40
2022-09-15T09:51:33.511Z,0.40
2022-09-15T09:54:20.592Z,0.60
2022-09-15T09:56:51.631Z,0.50
2022-09-15T09:59:43.992Z,0.30
2022-09-15T10:02:20.606Z,0.55
2022-09-15T10:04:52.673Z,0.50
2022-09-15T10:07:22.923Z,0.50
2022-09-15T10:09:52.908Z,0.50
2022-09-15T10:12:23.533Z,0.50
2022-09-15T10:14:53.684Z,0.60
2022-09-15T10:17:23.670Z,0.50
2022-09-15T10:19:54.973Z,0.50
2022-09-15T10:22:24.786Z,0.40
2022-09-15T10:24:51.306Z,0.55
2022-09-15T10:27:32.569Z,0.57
2022-09-15T10:30:16.463Z,0.60
2022-09-15T10:32:43.198Z,0.60
2022-09-15T10:35:09.762Z,0.63
2022-09-15T10:38:08.836Z,0.40
2022-09-15T10:41:13.726Z,0.82
2022-09-15T10:44:01.925Z,0.65
2022-09-15T10:46:53.785Z,0.70
2022-09-15T10:49:44.503Z,0.80
2022-09-15T10:52:19.960Z,0.50
2022-09-15T10:55:07.816Z,0.50
2022-09-15T10:58:07.068Z,0.80
2022-09-15T11:00:54.998Z,0.70
2022-09-15T11:03:44.526Z,0.50
2022-09-15T11:06:29.819Z,0.60
2022-09-15T11:09:13.572Z,0.43
2022-09-15T11:11:52.638Z,1.10
2022-09-15T11:14:48.743Z,0.65
2022-09-15T11:17:37.244Z,0.90
2022-09-15T11:20:11.477Z,0.70
2022-09-15T11:22:49.671Z,0.80
2022-09-15T11:25:23.196Z,0.40
2022-09-15T11:27:59.967Z,0.68
2022-09-15T11:30:35.035Z,0.65
2022-09-15T11:33:18.075Z,0.60
2022-09-15T11:36:13.010Z,0.60
2022-09-15T11:38:49.634Z,0.50
2022-09-15T11:41:20.047Z,0.50
2022-09-15T11:44:17.038Z,0.52
2022-09-15T11:46:57.466Z,0.50
2022-09-15T11:49:31.314Z,0.50
2022-09-15T11:52:18.848Z,0.60
2022-09-15T11:54:54.024Z,0.47
2022-09-15T11:57:30.363Z,0.93
2022-09-15T12:00:10.585Z,0.60
2022-09-15T12:02:42.866Z,0.83
2022-09-15T12:05:22.097Z,0.50
2022-09-15T12:07:54.538Z,0.60
2022-09-15T12:10:28.530Z,0.40
2022-09-15T12:12:56.223Z,0.90
2022-09-15T12:15:27.309Z,0.30
2022-09-15T12:18:37.348Z,0.50
2022-09-15T12:21:23.803Z,0.40
2022-09-15T12:24:05.182Z,0.60
2022-09-15T12:26:33.523Z,0.50
2022-09-15T12:29:02.493Z,0.43
2022-09-15T12:31:37.845Z,0.40
2022-09-15T12:34:25.736Z,0.45
2022-09-15T12:36:54.038Z,0.50
2022-09-15T12:39:51.098Z,0.40
2022-09-15T12:42:33.188Z,0.50
2022-09-15T12:45:06.732Z,0.40
2022-09-15T12:47:40.269Z,0.40
2022-09-15T12:50:06.856Z,0.63
2022-09-15T12:52:43.510Z,0.50
2022-09-15T12:55:18.241Z,0.40
2022-09-15T12:57:54.512Z,0.65
2022-09-15T13:00:20.808Z,0.73
2022-09-15T13:02:49.284Z,0.60
2022-09-15T13:05:41.195Z,0.40
2022-09-15T13:08:34.633Z,0.40
2022-09-15T13:11:04.743Z,0.93
2022-09-15T13:13:43.668Z,0.40
2022-09-15T13:16:18.268Z,0.60
2022-09-15T13:18:46.995Z,0.30
2022-09-15T13:21:21.170Z,0.90
2022-09-15T13:23:51.921Z,0.80
2022-09-15T13:26:23.955Z,0.60
2022-09-15T13:28:54.136Z,0.40
2022-09-15T13:31:50.841Z,0.47
2022-09-15T13:40:49.605Z,0.80
2022-09-15T13:43:42.334Z,0.57
2022-09-15T13:46:33.895Z,0.60
2022-09-15T13:49:37.931Z,0.50
2022-09-15T13:52:32.200Z,0.47
2022-09-15T13:55:16.929Z,0.50
2022-09-15T14:00:43.750Z,0.60
2022-09-15T14:03:15.310Z,0.50
2022-09-15T14:05:42.040Z,0.47
2022-09-15T14:08:22.903Z,0.88
2022-09-15T14:11:01.035Z,0.75
2022-09-15T14:13:28.976Z,1.23
2022-09-15T14:16:08.026Z,0.57
2022-09-15T14:18:45.172Z,0.32
2022-09-15T14:21:23.341Z,0.40
2022-09-15T14:23:52.096Z,0.35
2022-09-15T14:26:22.243Z,0.40
2022-09-15T14:28:51.874Z,0.40
2022-09-15T14:31:31.260Z,0.50
2022-09-15T14:33:58.086Z,0.32
2022-09-15T14:36:29.863Z,0.32
2022-09-15T14:39:11.126Z,0.45
2022-09-15T14:41:39.104Z,0.60
2022-09-15T14:47:25.603Z,0.40
2022-09-15T14:50:13.643Z,0.40
2022-09-15T14:52:48.148Z,0.50
2022-09-15T14:55:22.578Z,0.70
2022-09-15T14:58:14.228Z,0.50
2022-09-15T15:00:55.887Z,0.85
2022-09-15T15:04:17.965Z,0.47
2022-09-15T15:06:57.316Z,0.50
2022-09-15T15:09:32.413Z,0.53
2022-09-15T15:12:04.553Z,0.43
2022-09-15T15:14:31.238Z,0.60
2022-09-15T15:17:05.784Z,0.40
2022-09-15T15:19:41.035Z,0.60
2022-09-15T15:22:13.555Z,0.40
2022-09-15T15:24:42.745Z,0.65
2022-09-15T15:27:33.532Z,0.60
2022-09-15T15:30:29.594Z,0.60
2022-09-15T15:33:04.554Z,0.40
2022-09-15T15:35:32.862Z,0.47
2022-09-15T15:38:11.425Z,0.77
2022-09-15T15:40:40.471Z,0.75
2022-09-15T15:43:16.820Z,0.77
2022-09-15T15:45:51.912Z,0.63
2022-09-15T15:48:18.235Z,0.40
2022-09-15T15:50:44.561Z,0.50
2022-09-15T15:53:11.122Z,0.47
2022-09-15T15:55:40.626Z,0.50
2022-09-15T15:58:08.864Z,0.40
2022-09-15T16:00:44.130Z,0.77
2022-09-15T16:03:11.463Z,0.40
2022-09-15T16:05:39.208Z,0.65
2022-09-15T16:08:17.744Z,0.30
2022-09-15T16:10:47.876Z,0.60
2022-09-15T16:13:19.286Z,0.30
2022-09-15T16:15:45.800Z,0.60
2022-09-15T16:18:12.943Z,0.40
2022-09-15T16:20:40.177Z,0.43
2022-09-15T16:23:07.601Z,0.30
2022-09-15T16:26:02.298Z,0.80
2022-09-15T16:28:29.508Z,0.30
2022-09-15T16:30:57.003Z,0.40
2022-09-15T16:33:24.848Z,0.30
2022-09-15T16:36:03.525Z,0.40
2022-09-15T16:38:29.885Z,0.30
2022-09-15T16:40:56.520Z,0.40
2022-09-15T16:43:23.093Z,0.35
2022-09-15T16:45:50.590Z,0.43
2022-09-15T16:48:17.324Z,0.30
2022-09-15T16:53:31.133Z,0.60
2022-09-15T16:55:58.553Z,0.38
2022-09-15T16:58:24.884Z,0.57
2022-09-15T17:00:52.566Z,0.40
2022-09-15T17:03:21.384Z,0.40
2022-09-15T17:05:50.021Z,0.28
2022-09-15T17:08:18.800Z,0.40
2022-09-15T17:10:46.070Z,0.45
2022-09-15T17:13:17.478Z,0.50
2022-09-15T17:15:45.862Z,0.53
2022-09-15T17:18:15.267Z,0.40
2022-09-15T17:20:43.872Z,0.45
2022-09-15T17:23:36.588Z,0.50
2022-09-15T17:26:06.621Z,0.40
2022-09-15T17:28:34.689Z,0.40
2022-09-15T17:31:17.155Z,0.90
2022-09-15T17:33:44.295Z,0.40
2022-09-15T17:36:11.307Z,0.57
2022-09-15T17:38:38.229Z,0.50
2022-09-15T17:41:04.595Z,0.47
2022-09-15T17:43:31.828Z,0.60
2022-09-15T17:45:58.537Z,0.63
2022-09-15T17:48:25.104Z,0.70
2022-09-15T17:50:52.285Z,0.47
2022-09-15T17:53:21.487Z,0.30
2022-09-15T17:55:49.169Z,0.60
2022-09-15T17:58:16.113Z,0.50
2022-09-15T18:00:43.704Z,0.45
2022-09-15T18:03:15.526Z,0.40
2022-09-15T18:05:42.195Z,0.50
2022-09-15T18:08:09.532Z,0.30
2022-09-15T18:10:36.467Z,0.40
2022-09-15T18:13:04.202Z,0.40
2022-09-15T18:15:33.959Z,0.50
2022-09-15T18:18:03.936Z,0.40
2022-09-15T18:20:32.670Z,0.30
2022-09-15T18:23:00.049Z,0.63
2022-09-15T18:25:30.777Z,0.50
2022-09-15T18:27:58.555Z,0.40
2022-09-15T18:30:27.575Z,0.40
2022-09-15T18:32:53.967Z,0.30
2022-09-15T18:35:21.222Z,0.38
2022-09-15T18:37:49.699Z,0.20
2022-09-15T18:40:18.407Z,0.40
2022-09-15T18:42:45.600Z,0.40
2022-09-15T18:45:14.510Z,0.30
2022-09-15T18:47:42.385Z,0.55
2022-09-15T18:50:11.935Z,0.50
2022-09-15T18:52:40.613Z,0.35
2022-09-15T18:55:09.093Z,0.30
2022-09-15T18:57:36.837Z,0.30
2022-09-15T19:00:10.082Z,0.40
2022-09-15T19:02:36.684Z,0.32
2022-09-15T19:05:03.426Z,0.52
2022-09-15T19:07:29.743Z,0.33
2022-09-15T19:09:56.701Z,0.50
2022-09-15T19:12:23.177Z,0.30
2022-09-15T19:14:49.527Z,0.35
2022-09-15T19:17:16.573Z,0.50
2022-09-15T19:19:43.426Z,0.43
2022-09-15T19:22:10.314Z,0.40
2022-09-15T19:24:36.797Z,0.40
2022-09-15T19:27:05.149Z,0.47
2022-09-15T19:29:34.645Z,0.40
2022-09-15T19:32:07.060Z,0.50
2022-09-15T19:34:33.704Z,0.30
2022-09-15T19:37:00.127Z,0.30
2022-09-15T19:39:26.501Z,0.30
2022-09-15T19:41:52.890Z,0.43
2022-09-15T19:44:19.249Z,0.47
2022-09-15T19:46:45.707Z,0.40
2022-09-15T19:49:12.608Z,0.40
2022-09-15T19:51:39.306Z,0.50
2022-09-15T19:54:06.775Z,0.30
2022-09-15T19:56:34.069Z,0.50
2022-09-15T19:59:00.632Z,0.90
2022-09-15T20:01:28.928Z,0.50
2022-09-15T20:03:56.653Z,0.47
2022-09-15T20:06:25.109Z,0.60
2022-09-15T20:08:56.728Z,0.40
2022-09-15T20:11:23.357Z,0.45
2022-09-15T20:13:49.672Z,0.45
2022-09-15T20:16:17.840Z,0.30
2022-09-15T20:18:46.615Z,0.40
2022-09-15T20:21:32.515Z,0.40
2022-09-15T20:24:05.250Z,0.50
2022-09-15T20:26:32.007Z,0.50
2022-09-15T20:29:02.542Z,0.40
2022-09-15T20:31:32.869Z,0.50
2022-09-15T20:34:00.541Z,0.50
2022-09-15T20:36:29.921Z,0.50
2022-09-15T20:38:57.035Z,0.60
2022-09-15T20:41:25.481Z,0.60
2022-09-15T20:43:52.190Z,0.57
2022-09-15T20:46:21.128Z,0.40
2022-09-15T20:48:47.742Z,0.50
2022-09-15T20:51:17.122Z,0.70
2022-09-15T20:53:45.967Z,0.40
2022-09-15T20:56:14.075Z,0.50
2022-09-15T20:58:40.955Z,0.83
2022-09-15T21:01:11.657Z,0.43
2022-09-15T21:03:40.245Z,0.30
2022-09-15T21:06:09.298Z,0.43
2022-09-15T21:08:36.365Z,0.70
2022-09-15T21:11:04.998Z,0.70
2022-09-15T21:13:33.638Z,0.45
2022-09-15T21:16:02.433Z,1.27
2022-09-15T21:18:34.363Z,0.50
2022-09-15T21:21:09.837Z,0.35
2022-09-15T21:23:42.413Z,0.60
2022-09-15T21:26:14.811Z,0.50
2022-09-15T21:28:43.369Z,0.40
2022-09-15T21:31:12.531Z,0.43
2022-09-15T21:33:39.605Z,0.43
2022-09-15T21:36:09.392Z,0.83
2022-09-15T21:38:40.359Z,0.55
2022-09-15T21:41:09.142Z,0.50
2022-09-15T21:43:37.367Z,0.50
2022-09-15T21:46:05.336Z,0.40
2022-09-15T21:48:33.126Z,0.50
2022-09-15T21:50:59.626Z,0.40
2022-09-15T21:53:27.002Z,0.52
2022-09-15T21:55:53.661Z,0.43
2022-09-15T21:58:21.859Z,0.40
2022-09-15T22:00:49.584Z,0.50
2022-09-15T22:03:17.393Z,0.50
2022-09-15T22:05:47.820Z,0.52
2022-09-15T22:08:16.147Z,0.68
2022-09-15T22:10:44.254Z,0.47
2022-09-15T22:13:11.361Z,0.57
2022-09-15T22:15:38.197Z,0.50
2022-09-15T22:18:04.717Z,0.68
2022-09-15T22:20:31.065Z,0.55
2022-09-15T22:23:00.599Z,0.47
2022-09-15T22:25:27.080Z,0.53
2022-09-15T22:27:53.412Z,0.52
2022-09-15T22:30:19.760Z,0.52
2022-09-15T22:32:46.141Z,0.50
2022-09-15T22:35:12.542Z,0.60
2022-09-15T22:37:38.867Z,0.50
2022-09-15T22:40:05.814Z,0.52
2022-09-15T22:42:32.214Z,0.60
2022-09-15T22:44:58.542Z,0.45
2022-09-15T22:47:24.884Z,0.60
2022-09-15T22:49:51.216Z,0.40
2022-09-15T22:52:17.585Z,0.55
2022-09-15T22:54:43.909Z,0.80
2022-09-15T22:57:10.314Z,0.60
2022-09-15T22:59:36.654Z,0.30
2022-09-15T23:02:03.097Z,0.60
2022-09-15T23:04:29.566Z,0.47
2022-09-15T23:06:55.917Z,0.40
2022-09-15T23:09:22.238Z,0.50
2022-09-15T23:11:48.551Z,0.47
2022-09-15T23:14:17.181Z,0.50
2022-09-15T23:16:44.278Z,0.93
2022-09-15T23:19:14.366Z,0.60
2022-09-15T23:21:40.828Z,0.30
2022-09-15T23:24:08.629Z,0.52
2022-09-15T23:26:34.968Z,0.53
2022-09-15T23:29:01.282Z,0.60
2022-09-15T23:31:27.694Z,0.60
2022-09-15T23:33:54.033Z,0.60
2022-09-15T23:36:20.468Z,0.50
2022-09-15T23:38:47.819Z,0.57
2022-09-15T23:41:15.759Z,0.40
2022-09-15T23:43:42.125Z,0.60
2022-09-15T23:46:09.269Z,0.40
2022-09-15T23:48:35.970Z,0.40
2022-09-15T23:51:02.907Z,0.70
2022-09-15T23:53:29.710Z,0.40
2022-09-15T23:55:56.524Z,0.50
2022-09-15T23:58:22.897Z,0.98
